sensor_id;sensor_type;location;lat;lon;timestamp;pressure;altitude;pressure_sealevel;temperature;humidity
21980;BME280;11154;48.558;9.234;2023-02-28T00:00:55;98112.72;;;4.39;45.93
21980;BME280;11154;48.558;9.234;2023-02-28T00:02:56;98116.16;;;4.40;45.51
21980;BME280;11154;48.558;9.234;2023-02-28T00:04:59;98112.59;;;4.41;45.74
21980;BME280;11154;48.558;9.234;2023-02-28T00:07:03;98113.53;;;4.40;45.70
21980;BME280;11154;48.558;9.234;2023-02-28T00:09:05;98105.00;;;4.36;46.16
21980;BME280;11154;48.558;9.234;2023-02-28T00:11:09;98113.03;;;4.35;46.08
21980;BME280;11154;48.558;9.234;2023-02-28T00:13:11;98111.97;;;4.37;46.29
21980;BME280;11154;48.558;9.234;2023-02-28T00:15:13;98109.22;;;4.39;46.20
21980;BME280;11154;48.558;9.234;2023-02-28T00:17:15;98109.47;;;4.36;46.15
21980;BME280;11154;48.558;9.234;2023-02-28T00:19:18;98104.38;;;4.33;46.17
21980;BME280;11154;48.558;9.234;2023-02-28T00:21:21;98108.50;;;4.37;45.46
21980;BME280;11154;48.558;9.234;2023-02-28T00:23:22;98106.59;;;4.39;45.81
21980;BME280;11154;48.558;9.234;2023-02-28T00:25:25;98119.34;;;4.45;45.78
21980;BME280;11154;48.558;9.234;2023-02-28T00:27:26;98113.84;;;4.48;46.07
21980;BME280;11154;48.558;9.234;2023-02-28T00:29:28;98113.00;;;4.47;45.18
21980;BME280;11154;48.558;9.234;2023-02-28T00:31:30;98103.75;;;4.42;46.15
21980;BME280;11154;48.558;9.234;2023-02-28T00:33:31;98111.53;;;4.43;46.21
21980;BME280;11154;48.558;9.234;2023-02-28T00:35:33;98110.69;;;4.43;46.11
21980;BME280;11154;48.558;9.234;2023-02-28T00:37:36;98109.22;;;4.39;46.27
21980;BME280;11154;48.558;9.234;2023-02-28T00:39:38;98107.75;;;4.35;46.16
21980;BME280;11154;48.558;9.234;2023-02-28T00:41:41;98106.81;;;4.36;46.15
21980;BME280;11154;48.558;9.234;2023-02-28T00:43:42;98100.63;;;4.37;46.94
21980;BME280;11154;48.558;9.234;2023-02-28T00:45:44;98109.22;;;4.39;46.23
21980;BME280;11154;48.558;9.234;2023-02-28T00:47:46;98108.50;;;4.37;47.18
21980;BME280;11154;48.558;9.234;2023-02-28T00:49:49;98112.22;;;4.34;46.56
21980;BME280;11154;48.558;9.234;2023-02-28T00:51:52;98107.75;;;4.35;46.37
21980;BME280;11154;48.558;9.234;2023-02-28T00:53:55;98098.41;;;4.31;46.51
21980;BME280;11154;48.558;9.234;2023-02-28T00:55:57;98103.56;;;4.32;46.77
21980;BME280;11154;48.558;9.234;2023-02-28T00:57:58;98106.31;;;4.31;47.47
21980;BME280;11154;48.558;9.234;2023-02-28T01:00:00;98106.75;;;4.25;47.01
21980;BME280;11154;48.558;9.234;2023-02-28T01:02:02;98098.31;;;4.20;47.15
21980;BME280;11154;48.558;9.234;2023-02-28T01:04:04;98105.50;;;4.18;47.58
21980;BME280;11154;48.558;9.234;2023-02-28T01:06:06;98109.81;;;4.19;47.85
21980;BME280;11154;48.558;9.234;2023-02-28T01:08:08;98100.25;;;4.18;47.09
21980;BME280;11154;48.558;9.234;2023-02-28T01:10:11;98103.59;;;4.20;47.63
21980;BME280;11154;48.558;9.234;2023-02-28T01:12:13;98105.50;;;4.18;47.66
21980;BME280;11154;48.558;9.234;2023-02-28T01:14:15;98105.59;;;4.17;47.99
21980;BME280;11154;48.558;9.234;2023-02-28T01:16:18;98109.91;;;4.18;47.47
21980;BME280;11154;48.558;9.234;2023-02-28T01:18:20;98111.47;;;4.20;47.99
21980;BME280;11154;48.558;9.234;2023-02-28T01:20:22;98107.38;;;4.16;47.73
21980;BME280;11154;48.558;9.234;2023-02-28T01:22:24;98105.50;;;4.18;47.90
21980;BME280;11154;48.558;9.234;2023-02-28T01:24:25;98104.00;;;4.14;47.65
21980;BME280;11154;48.558;9.234;2023-02-28T01:26:29;98102.34;;;4.13;48.01
21980;BME280;11154;48.558;9.234;2023-02-28T01:28:30;98102.13;;;4.16;47.87
21980;BME280;11154;48.558;9.234;2023-02-28T01:30:32;98104.31;;;4.22;47.79
21980;BME280;11154;48.558;9.234;2023-02-28T01:32:35;98112.63;;;4.28;48.60
21980;BME280;11154;48.558;9.234;2023-02-28T01:34:37;98105.38;;;4.32;47.55
21980;BME280;11154;48.558;9.234;2023-02-28T01:36:39;98098.31;;;4.32;48.17
21980;BME280;11154;48.558;9.234;2023-02-28T01:38:41;98099.38;;;4.30;47.89
21980;BME280;11154;48.558;9.234;2023-02-28T01:40:42;98094.09;;;4.30;48.05
21980;BME280;11154;48.558;9.234;2023-02-28T01:42:45;98090.41;;;4.32;48.14
21980;BME280;11154;48.558;9.234;2023-02-28T01:45:03;98086.72;;;4.35;48.52
21980;BME280;11154;48.558;9.234;2023-02-28T01:47:05;98078.06;;;4.33;48.75
21980;BME280;11154;48.558;9.234;2023-02-28T01:49:09;98083.13;;;4.36;48.74
21980;BME280;11154;48.558;9.234;2023-02-28T01:51:18;98086.50;;;4.38;48.26
21980;BME280;11154;48.558;9.234;2023-02-28T01:53:24;98083.00;;;4.37;49.20
21980;BME280;11154;48.558;9.234;2023-02-28T01:55:30;98080.38;;;4.37;48.67
21980;BME280;11154;48.558;9.234;2023-02-28T01:57:35;98085.25;;;4.31;48.64
21980;BME280;11154;48.558;9.234;2023-02-28T01:59:42;98081.50;;;4.23;48.95
21980;BME280;11154;48.558;9.234;2023-02-28T02:01:46;98050.91;;;2.85;53.82
21980;BME280;11154;48.558;9.234;2023-02-28T02:03:49;98054.00;;;2.39;56.46
21980;BME280;11154;48.558;9.234;2023-02-28T02:05:55;98050.78;;;2.21;58.22
21980;BME280;11154;48.558;9.234;2023-02-28T02:08:00;98042.03;;;2.09;58.84
21980;BME280;11154;48.558;9.234;2023-02-28T02:10:07;98042.78;;;1.97;59.82
21980;BME280;11154;48.558;9.234;2023-02-28T02:12:23;98038.13;;;1.88;61.00
21980;BME280;11154;48.558;9.234;2023-02-28T02:14:40;98034.84;;;1.84;60.92
21980;BME280;11154;48.558;9.234;2023-02-28T02:16:54;98027.09;;;1.83;61.69
21980;BME280;11154;48.558;9.234;2023-02-28T02:19:02;98030.75;;;1.80;61.38
21980;BME280;11154;48.558;9.234;2023-02-28T02:21:21;98023.91;;;1.78;61.64
21980;BME280;11154;48.558;9.234;2023-02-28T02:23:34;98026.63;;;1.76;61.78
21980;BME280;11154;48.558;9.234;2023-02-28T02:25:45;98017.06;;;1.75;62.32
21980;BME280;11154;48.558;9.234;2023-02-28T02:33:41;98007.63;;;1.73;63.04
21980;BME280;11154;48.558;9.234;2023-02-28T02:35:47;98008.66;;;1.70;62.86
21980;BME280;11154;48.558;9.234;2023-02-28T02:37:52;98013.16;;;1.68;63.08
21980;BME280;11154;48.558;9.234;2023-02-28T02:40:01;98027.00;;;1.70;62.87
21980;BME280;11154;48.558;9.234;2023-02-28T02:42:11;98016.78;;;1.66;63.14
21980;BME280;11154;48.558;9.234;2023-02-28T02:44:18;98019.50;;;1.64;63.93
21980;BME280;11154;48.558;9.234;2023-02-28T02:46:25;98028.25;;;1.65;63.81
21980;BME280;11154;48.558;9.234;2023-02-28T02:48:32;98021.47;;;1.61;64.47
21980;BME280;11154;48.558;9.234;2023-02-28T02:50:38;98031.97;;;1.61;64.36
21980;BME280;11154;48.558;9.234;2023-02-28T02:52:48;98019.72;;;1.61;65.01
21980;BME280;11154;48.558;9.234;2023-02-28T02:54:54;98031.78;;;1.64;64.85
21980;BME280;11154;48.558;9.234;2023-02-28T02:57:00;98024.88;;;1.63;64.96
21980;BME280;11154;48.558;9.234;2023-02-28T02:59:07;98025.91;;;1.60;65.15
21980;BME280;11154;48.558;9.234;2023-02-28T03:01:12;98031.97;;;1.61;64.89
21980;BME280;11154;48.558;9.234;2023-02-28T03:03:18;98034.47;;;1.62;65.03
21980;BME280;11154;48.558;9.234;2023-02-28T03:05:27;98032.72;;;1.63;65.21
21980;BME280;11154;48.558;9.234;2023-02-28T03:07:31;98042.34;;;1.62;65.24
21980;BME280;11154;48.558;9.234;2023-02-28T03:09:34;98038.78;;;1.63;65.47
21980;BME280;11154;48.558;9.234;2023-02-28T03:11:38;98043.97;;;1.65;65.37
21980;BME280;11154;48.558;9.234;2023-02-28T03:14:11;98044.63;;;1.68;65.76
21980;BME280;11154;48.558;9.234;2023-02-28T03:16:30;98050.69;;;1.69;65.81
21980;BME280;11154;48.558;9.234;2023-02-28T03:18:40;98040.19;;;1.69;66.17
21980;BME280;11154;48.558;9.234;2023-02-28T03:20:50;98034.97;;;1.69;66.26
21980;BME280;11154;48.558;9.234;2023-02-28T03:23:03;98036.66;;;1.70;66.26
21980;BME280;11154;48.558;9.234;2023-02-28T03:25:16;98026.28;;;1.68;66.27
21980;BME280;11154;48.558;9.234;2023-02-28T03:27:24;98026.16;;;1.70;66.15
21980;BME280;11154;48.558;9.234;2023-02-28T03:29:33;98026.88;;;1.72;66.56
21980;BME280;11154;48.558;9.234;2023-02-28T03:31:39;98027.84;;;1.71;66.65
21980;BME280;11154;48.558;9.234;2023-02-28T03:33:46;98023.16;;;1.76;67.11
21980;BME280;11154;48.558;9.234;2023-02-28T03:35:57;98025.78;;;1.76;66.19
21980;BME280;11154;48.558;9.234;2023-02-28T03:38:06;98023.91;;;1.78;66.24
21980;BME280;11154;48.558;9.234;2023-02-28T03:40:14;98031.03;;;1.76;66.39
21980;BME280;11154;48.558;9.234;2023-02-28T03:42:19;98019.59;;;1.77;66.55
21980;BME280;11154;48.558;9.234;2023-02-28T03:44:25;98022.03;;;1.80;66.29
21980;BME280;11154;48.558;9.234;2023-02-28T03:46:33;98025.56;;;1.79;66.64
21980;BME280;11154;48.558;9.234;2023-02-28T03:48:40;98028.19;;;1.79;66.91
21980;BME280;11154;48.558;9.234;2023-02-28T03:50:47;98029.16;;;1.78;66.95
21980;BME280;11154;48.558;9.234;2023-02-28T03:52:51;98031.69;;;1.79;67.15
21980;BME280;11154;48.558;9.234;2023-02-28T03:54:59;98030.81;;;1.79;67.40
21980;BME280;11154;48.558;9.234;2023-02-28T03:57:07;98037.03;;;1.78;67.71
21980;BME280;11154;48.558;9.234;2023-02-28T03:59:14;98029.88;;;1.80;68.13
21980;BME280;11154;48.558;9.234;2023-02-28T04:01:23;98053.34;;;2.62;66.01
21980;BME280;11154;48.558;9.234;2023-02-28T04:03:26;98065.44;;;3.03;62.56
21980;BME280;11154;48.558;9.234;2023-02-28T04:05:29;98059.88;;;3.20;61.16
21980;BME280;11154;48.558;9.234;2023-02-28T04:07:32;98066.84;;;3.33;60.19
21980;BME280;11154;48.558;9.234;2023-02-28T04:09:34;98055.69;;;3.42;59.24
21980;BME280;11154;48.558;9.234;2023-02-28T04:11:37;98056.66;;;3.54;58.23
21980;BME280;11154;48.558;9.234;2023-02-28T04:13:41;98056.75;;;3.64;58.54
21980;BME280;11154;48.558;9.234;2023-02-28T04:15:43;98052.75;;;3.71;57.07
21980;BME280;11154;48.558;9.234;2023-02-28T04:17:45;98057.56;;;3.77;56.96
21980;BME280;11154;48.558;9.234;2023-02-28T04:19:46;98057.03;;;3.85;56.40
21980;BME280;11154;48.558;9.234;2023-02-28T04:21:50;98057.75;;;3.99;56.94
21980;BME280;11154;48.558;9.234;2023-02-28T04:23:52;98060.25;;;4.13;56.11
21980;BME280;11154;48.558;9.234;2023-02-28T04:25:55;98060.44;;;4.23;55.40
21980;BME280;11154;48.558;9.234;2023-02-28T04:27:56;98053.88;;;4.28;54.77
21980;BME280;11154;48.558;9.234;2023-02-28T04:29:59;98059.31;;;4.37;54.21
21980;BME280;11154;48.558;9.234;2023-02-28T04:32:02;98057.81;;;4.46;54.24
21980;BME280;11154;48.558;9.234;2023-02-28T04:34:04;98048.75;;;4.50;53.61
21980;BME280;11154;48.558;9.234;2023-02-28T04:36:08;98054.03;;;4.50;54.19
21980;BME280;11154;48.558;9.234;2023-02-28T04:38:09;98052.34;;;4.49;54.02
21980;BME280;11154;48.558;9.234;2023-02-28T04:40:11;98050.66;;;4.48;53.99
21980;BME280;11154;48.558;9.234;2023-02-28T04:42:13;98056.16;;;4.45;53.90
21980;BME280;11154;48.558;9.234;2023-02-28T04:44:15;98048.16;;;4.46;54.34
21980;BME280;11154;48.558;9.234;2023-02-28T04:46:18;98050.91;;;4.45;54.30
21980;BME280;11154;48.558;9.234;2023-02-28T04:48:21;98059.75;;;4.44;54.02
21980;BME280;11154;48.558;9.234;2023-02-28T04:50:22;98052.34;;;4.49;54.37
21980;BME280;11154;48.558;9.234;2023-02-28T04:52:24;98057.38;;;4.52;54.08
21980;BME280;11154;48.558;9.234;2023-02-28T04:54:26;98057.59;;;4.49;54.13
21980;BME280;11154;48.558;9.234;2023-02-28T04:56:28;98049.47;;;4.52;54.06
21980;BME280;11154;48.558;9.234;2023-02-28T04:58:30;98049.72;;;4.49;53.99
21980;BME280;11154;48.558;9.234;2023-02-28T05:00:31;98050.22;;;4.54;53.58
21980;BME280;11154;48.558;9.234;2023-02-28T05:02:35;98045.97;;;4.64;53.57
21980;BME280;11154;48.558;9.234;2023-02-28T05:04:37;98047.63;;;4.65;53.54
21980;BME280;11154;48.558;9.234;2023-02-28T05:06:39;98046.91;;;4.63;53.24
21980;BME280;11154;48.558;9.234;2023-02-28T05:08:40;98044.50;;;4.60;53.44
21980;BME280;11154;48.558;9.234;2023-02-28T05:10:42;98054.81;;;4.63;53.09
21980;BME280;11154;48.558;9.234;2023-02-28T05:12:44;98056.66;;;4.73;53.56
21980;BME280;11154;48.558;9.234;2023-02-28T05:14:46;98062.03;;;4.72;53.30
21980;BME280;11154;48.558;9.234;2023-02-28T05:16:47;98059.19;;;4.75;53.53
21980;BME280;11154;48.558;9.234;2023-02-28T05:18:50;98066.34;;;4.73;53.54
21980;BME280;11154;48.558;9.234;2023-02-28T05:20:54;98069.53;;;4.65;53.37
21980;BME280;11154;48.558;9.234;2023-02-28T05:22:56;98065.69;;;4.58;53.62
21980;BME280;11154;48.558;9.234;2023-02-28T05:24:59;98074.84;;;4.53;54.31
21980;BME280;11154;48.558;9.234;2023-02-28T05:27:01;98077.09;;;4.46;54.14
21980;BME280;11154;48.558;9.234;2023-02-28T05:29:03;98069.19;;;4.46;53.94
21980;BME280;11154;48.558;9.234;2023-02-28T05:31:05;98076.97;;;4.48;54.36
21980;BME280;11154;48.558;9.234;2023-02-28T05:33:10;98083.69;;;4.52;54.38
21980;BME280;11154;48.558;9.234;2023-02-28T05:35:13;98076.03;;;4.49;54.23
21980;BME280;11154;48.558;9.234;2023-02-28T05:37:15;98078.66;;;4.49;54.48
21980;BME280;11154;48.558;9.234;2023-02-28T05:39:17;98078.66;;;4.49;54.50
21980;BME280;11154;48.558;9.234;2023-02-28T05:41:20;98071.28;;;4.54;54.40
21980;BME280;11154;48.558;9.234;2023-02-28T05:43:21;98077.59;;;4.51;54.25
21980;BME280;11154;48.558;9.234;2023-02-28T05:45:23;98071.72;;;4.48;54.59
21980;BME280;11154;48.558;9.234;2023-02-28T05:47:25;98075.19;;;4.48;54.76
21980;BME280;11154;48.558;9.234;2023-02-28T05:49:27;98072.91;;;4.44;54.41
21980;BME280;11154;48.558;9.234;2023-02-28T05:51:30;98075.47;;;4.56;54.80
21980;BME280;11154;48.558;9.234;2023-02-28T05:53:32;98075.16;;;4.61;53.89
21980;BME280;11154;48.558;9.234;2023-02-28T05:55:34;98072.06;;;4.67;54.69
21980;BME280;11154;48.558;9.234;2023-02-28T05:57:37;98065.34;;;4.63;54.02
21980;BME280;11154;48.558;9.234;2023-02-28T05:59:39;98064.16;;;4.67;53.68
21980;BME280;11154;48.558;9.234;2023-02-28T06:01:42;98069.91;;;4.72;54.09
21980;BME280;11154;48.558;9.234;2023-02-28T06:03:48;98073.75;;;4.68;53.57
21980;BME280;11154;48.558;9.234;2023-02-28T06:05:49;98071.00;;;4.69;53.96
21980;BME280;11154;48.558;9.234;2023-02-28T06:07:53;98069.75;;;4.62;53.44
21980;BME280;11154;48.558;9.234;2023-02-28T06:09:54;98074.81;;;4.65;53.64
21980;BME280;11154;48.558;9.234;2023-02-28T06:11:57;98076.88;;;4.73;53.75
21980;BME280;11154;48.558;9.234;2023-02-28T06:14:00;98084.78;;;4.73;53.31
21980;BME280;11154;48.558;9.234;2023-02-28T06:16:01;98081.66;;;4.68;53.24
21980;BME280;11154;48.558;9.234;2023-02-28T06:18:03;98084.28;;;4.68;53.26
21980;BME280;11154;48.558;9.234;2023-02-28T06:20:06;98090.28;;;4.70;53.23
21980;BME280;11154;48.558;9.234;2023-02-28T06:22:08;98097.31;;;4.69;53.04
21980;BME280;11154;48.558;9.234;2023-02-28T06:24:11;98099.84;;;4.71;52.93
21980;BME280;11154;48.558;9.234;2023-02-28T06:26:13;98098.91;;;4.72;53.01
21980;BME280;11154;48.558;9.234;2023-02-28T06:28:15;98094.38;;;4.74;52.44
21980;BME280;11154;48.558;9.234;2023-02-28T06:30:17;98101.06;;;4.78;52.77
21980;BME280;11154;48.558;9.234;2023-02-28T06:32:24;98105.06;;;4.83;52.90
21980;BME280;11154;48.558;9.234;2023-02-28T06:34:25;98107.13;;;4.91;51.85
21980;BME280;11154;48.558;9.234;2023-02-28T06:36:27;98106.94;;;4.94;51.71
21980;BME280;11154;48.558;9.234;2023-02-28T06:38:29;98106.94;;;4.94;52.15
21980;BME280;11154;48.558;9.234;2023-02-28T06:40:32;98108.81;;;4.92;51.84
21980;BME280;11154;48.558;9.234;2023-02-28T06:42:36;98114.09;;;4.92;52.10
21980;BME280;11154;48.558;9.234;2023-02-28T06:44:38;98104.75;;;4.88;51.72
21980;BME280;11154;48.558;9.234;2023-02-28T06:46:40;98108.09;;;4.90;51.77
21980;BME280;11154;48.558;9.234;2023-02-28T06:48:43;98107.66;;;4.96;51.68
21980;BME280;11154;48.558;9.234;2023-02-28T06:50:45;98116.38;;;4.96;51.51
21980;BME280;11154;48.558;9.234;2023-02-28T06:52:47;98110.28;;;4.96;51.50
21980;BME280;11154;48.558;9.234;2023-02-28T06:54:49;98118.78;;;4.99;51.86
21980;BME280;11154;48.558;9.234;2023-02-28T06:57:01;98123.09;;;5.00;51.24
21980;BME280;11154;48.558;9.234;2023-02-28T06:59:03;98124.66;;;5.02;51.20
21980;BME280;11154;48.558;9.234;2023-02-28T07:01:06;98128.00;;;4.94;51.93
21980;BME280;11154;48.558;9.234;2023-02-28T07:03:07;98123.31;;;4.86;51.48
21980;BME280;11154;48.558;9.234;2023-02-28T07:05:09;98124.88;;;4.89;52.17
21980;BME280;11154;48.558;9.234;2023-02-28T07:07:11;98118.41;;;4.93;51.58
21980;BME280;11154;48.558;9.234;2023-02-28T07:09:12;98128.00;;;4.94;52.19
21980;BME280;11154;48.558;9.234;2023-02-28T07:11:14;98124.41;;;4.95;52.35
21980;BME280;11154;48.558;9.234;2023-02-28T07:13:17;98128.75;;;4.96;51.99
21980;BME280;11154;48.558;9.234;2023-02-28T07:15:19;98127.50;;;4.89;52.10
21980;BME280;11154;48.558;9.234;2023-02-28T07:17:21;98120.53;;;4.88;52.73
21980;BME280;11154;48.558;9.234;2023-02-28T07:19:22;98129.41;;;4.87;52.12
21980;BME280;11154;48.558;9.234;2023-02-28T07:21:24;98132.78;;;4.89;52.30
21980;BME280;11154;48.558;9.234;2023-02-28T07:23:26;98129.69;;;4.95;52.35
21980;BME280;11154;48.558;9.234;2023-02-28T07:25:28;98135.66;;;4.97;52.25
21980;BME280;11154;48.558;9.234;2023-02-28T07:27:30;98143.34;;;4.99;52.27
21980;BME280;11154;48.558;9.234;2023-02-28T07:29:33;98139.06;;;5.09;52.35
21980;BME280;11154;48.558;9.234;2023-02-28T07:31:35;98140.09;;;5.19;51.42
21980;BME280;11154;48.558;9.234;2023-02-28T07:33:37;98140.88;;;5.32;51.07
21980;BME280;11154;48.558;9.234;2023-02-28T07:35:38;98139.56;;;5.38;50.61
21980;BME280;11154;48.558;9.234;2023-02-28T07:37:40;98140.41;;;5.38;50.95
21980;BME280;11154;48.558;9.234;2023-02-28T07:39:42;98141.84;;;5.42;50.34
21980;BME280;11154;48.558;9.234;2023-02-28T07:41:44;98134.69;;;5.44;50.70
21980;BME280;11154;48.558;9.234;2023-02-28T07:43:45;98144.38;;;5.44;50.81
21980;BME280;11154;48.558;9.234;2023-02-28T07:45:48;98139.81;;;5.46;50.44
21980;BME280;11154;48.558;9.234;2023-02-28T07:47:50;98135.00;;;5.40;50.77
21980;BME280;11154;48.558;9.234;2023-02-28T07:49:52;98139.69;;;5.47;50.00
21980;BME280;11154;48.558;9.234;2023-02-28T07:51:54;98141.63;;;5.45;50.21
21980;BME280;11154;48.558;9.234;2023-02-28T07:53:56;98133.81;;;5.44;50.18
21980;BME280;11154;48.558;9.234;2023-02-28T07:55:58;98134.81;;;5.54;50.04
21980;BME280;11154;48.558;9.234;2023-02-28T07:58:01;98141.81;;;5.66;49.94
21980;BME280;11154;48.558;9.234;2023-02-28T08:00:04;98138.06;;;5.57;49.73
21980;BME280;11154;48.558;9.234;2023-02-28T08:02:09;98137.81;;;5.49;50.10
21980;BME280;11154;48.558;9.234;2023-02-28T08:04:12;98136.38;;;5.56;50.03
21980;BME280;11154;48.558;9.234;2023-02-28T08:06:19;98145.28;;;5.66;49.38
21980;BME280;11154;48.558;9.234;2023-02-28T08:08:21;98145.66;;;5.62;48.84
21980;BME280;11154;48.558;9.234;2023-02-28T08:10:23;98153.91;;;5.57;48.16
21980;BME280;11154;48.558;9.234;2023-02-28T08:12:25;98148.19;;;5.74;48.14
21980;BME280;11154;48.558;9.234;2023-02-28T08:14:27;98147.88;;;5.89;47.57
21980;BME280;11154;48.558;9.234;2023-02-28T08:16:29;98147.66;;;5.92;47.25
21980;BME280;11154;48.558;9.234;2023-02-28T08:18:32;98152.06;;;5.92;46.37
21980;BME280;11154;48.558;9.234;2023-02-28T08:20:33;98157.59;;;5.78;46.94
21980;BME280;11154;48.558;9.234;2023-02-28T08:22:35;98152.75;;;5.72;46.95
21980;BME280;11154;48.558;9.234;2023-02-28T08:24:37;98161.00;;;5.68;46.76
21980;BME280;11154;48.558;9.234;2023-02-28T08:26:39;98160.88;;;5.69;47.26
21980;BME280;11154;48.558;9.234;2023-02-28T08:28:40;98152.84;;;5.70;47.00
21980;BME280;11154;48.558;9.234;2023-02-28T08:30:42;98155.13;;;5.75;46.91
21980;BME280;11154;48.558;9.234;2023-02-28T08:32:44;98152.50;;;5.75;46.68
21980;BME280;11154;48.558;9.234;2023-02-28T08:34:47;98153.44;;;5.74;46.77
21980;BME280;11154;48.558;9.234;2023-02-28T08:36:48;98152.41;;;5.76;46.64
21980;BME280;11154;48.558;9.234;2023-02-28T08:38:50;98157.47;;;5.79;46.94
21980;BME280;11154;48.558;9.234;2023-02-28T08:40:57;98154.97;;;5.89;47.49
21980;BME280;11154;48.558;9.234;2023-02-28T08:42:59;98159.31;;;6.01;46.68
21980;BME280;11154;48.558;9.234;2023-02-28T08:45:01;98159.44;;;6.10;46.82
21980;BME280;11154;48.558;9.234;2023-02-28T08:47:04;98161.84;;;6.13;45.45
21980;BME280;11154;48.558;9.234;2023-02-28T08:49:05;98165.31;;;6.03;45.96
21980;BME280;11154;48.558;9.234;2023-02-28T08:51:11;98158.09;;;5.94;45.54
21980;BME280;11154;48.558;9.234;2023-02-28T08:53:14;98162.03;;;5.88;46.27
21980;BME280;11154;48.558;9.234;2023-02-28T08:55:15;98160.00;;;5.92;46.03
21980;BME280;11154;48.558;9.234;2023-02-28T08:57:17;98169.84;;;5.90;45.67
21980;BME280;11154;48.558;9.234;2023-02-28T08:59:19;98175.34;;;5.87;46.17
21980;BME280;11154;48.558;9.234;2023-02-28T09:01:22;98174.03;;;5.92;45.85
21980;BME280;11154;48.558;9.234;2023-02-28T09:03:24;98170.31;;;5.95;45.80
21980;BME280;11154;48.558;9.234;2023-02-28T09:05:27;98168.66;;;5.94;45.64
21980;BME280;11154;48.558;9.234;2023-02-28T09:07:30;98176.09;;;6.00;45.81
21980;BME280;11154;48.558;9.234;2023-02-28T09:09:32;98178.03;;;6.09;45.62
21980;BME280;11154;48.558;9.234;2023-02-28T09:11:34;98171.56;;;6.13;45.39
21980;BME280;11154;48.558;9.234;2023-02-28T09:13:37;98179.81;;;6.08;45.19
21980;BME280;11154;48.558;9.234;2023-02-28T09:15:39;98183.91;;;6.12;45.85
21980;BME280;11154;48.558;9.234;2023-02-28T09:17:40;98181.16;;;6.14;45.49
21980;BME280;11154;48.558;9.234;2023-02-28T09:19:42;98183.31;;;6.20;46.17
21980;BME280;11154;48.558;9.234;2023-02-28T09:21:44;98190.75;;;6.37;45.87
21980;BME280;11154;48.558;9.234;2023-02-28T09:23:49;98182.25;;;6.44;44.27
21980;BME280;11154;48.558;9.234;2023-02-28T09:25:53;98183.22;;;6.32;44.47
21980;BME280;11154;48.558;9.234;2023-02-28T09:27:55;98198.09;;;6.22;44.78
21980;BME280;11154;48.558;9.234;2023-02-28T09:29:56;98187.72;;;6.08;45.15
21980;BME280;11154;48.558;9.234;2023-02-28T09:31:58;98197.06;;;6.01;45.59
21980;BME280;11154;48.558;9.234;2023-02-28T09:34:00;98196.84;;;5.93;45.57
21980;BME280;11154;48.558;9.234;2023-02-28T09:36:03;98193.34;;;5.93;45.86
21980;BME280;11154;48.558;9.234;2023-02-28T09:38:05;98199.00;;;5.99;45.40
21980;BME280;11154;48.558;9.234;2023-02-28T09:40:10;98196.25;;;6.12;45.74
21980;BME280;11154;48.558;9.234;2023-02-28T09:42:20;98191.38;;;6.18;45.29
21980;BME280;11154;48.558;9.234;2023-02-28T09:44:27;98201.53;;;6.12;45.17
21980;BME280;11154;48.558;9.234;2023-02-28T09:46:32;98193.63;;;6.01;45.33
21980;BME280;11154;48.558;9.234;2023-02-28T09:48:37;98202.00;;;6.06;45.46
21980;BME280;11154;48.558;9.234;2023-02-28T09:50:46;98196.38;;;6.10;45.06
21980;BME280;11154;48.558;9.234;2023-02-28T09:52:50;98195.91;;;6.05;45.03
21980;BME280;11154;48.558;9.234;2023-02-28T09:54:52;98203.94;;;6.04;45.14
21980;BME280;11154;48.558;9.234;2023-02-28T09:56:58;98198.41;;;6.07;45.31
21980;BME280;11154;48.558;9.234;2023-02-28T09:59:05;98209.91;;;5.95;45.15
21980;BME280;11154;48.558;9.234;2023-02-28T10:01:18;98208.97;;;5.96;45.27
21980;BME280;11154;48.558;9.234;2023-02-28T10:03:27;98211.00;;;6.03;45.88
21980;BME280;11154;48.558;9.234;2023-02-28T10:05:33;98215.00;;;6.09;45.25
21980;BME280;11154;48.558;9.234;2023-02-28T10:07:56;98218.47;;;6.09;44.72
21980;BME280;11154;48.558;9.234;2023-02-28T10:10:06;98216.91;;;6.07;44.80
21980;BME280;11154;48.558;9.234;2023-02-28T10:12:18;98219.19;;;6.00;45.08
21980;BME280;11154;48.558;9.234;2023-02-28T10:14:23;98215.94;;;5.97;45.26
21980;BME280;11154;48.558;9.234;2023-02-28T10:16:28;98209.91;;;5.95;45.40
21980;BME280;11154;48.558;9.234;2023-02-28T10:18:41;98212.56;;;5.95;46.09
21980;BME280;11154;48.558;9.234;2023-02-28T10:20:45;98220.97;;;6.00;45.40
21980;BME280;11154;48.558;9.234;2023-02-28T10:22:52;98217.84;;;6.06;45.48
21980;BME280;11154;48.558;9.234;2023-02-28T10:24:55;98218.25;;;6.12;45.30
21980;BME280;11154;48.558;9.234;2023-02-28T10:27:03;98218.13;;;6.14;45.22
21980;BME280;11154;48.558;9.234;2023-02-28T10:29:09;98216.09;;;6.17;45.20
21980;BME280;11154;48.558;9.234;2023-02-28T10:31:14;98219.47;;;6.19;45.19
21980;BME280;11154;48.558;9.234;2023-02-28T10:33:22;98211.16;;;6.24;45.75
21980;BME280;11154;48.558;9.234;2023-02-28T10:35:25;98214.78;;;6.23;45.12
21980;BME280;11154;48.558;9.234;2023-02-28T10:37:28;98221.50;;;6.27;44.85
21980;BME280;11154;48.558;9.234;2023-02-28T10:39:37;98214.31;;;6.29;44.86
21980;BME280;11154;48.558;9.234;2023-02-28T10:41:42;98217.44;;;6.23;44.54
21980;BME280;11154;48.558;9.234;2023-02-28T10:43:44;98214.25;;;6.18;44.58
21980;BME280;11154;48.558;9.234;2023-02-28T10:45:56;98216.09;;;6.28;44.61
21980;BME280;11154;48.558;9.234;2023-02-28T10:48:00;98215.00;;;6.31;44.97
21980;BME280;11154;48.558;9.234;2023-02-28T10:50:03;98214.06;;;6.32;44.27
21980;BME280;11154;48.558;9.234;2023-02-28T10:52:08;98222.47;;;6.37;44.54
21980;BME280;11154;48.558;9.234;2023-02-28T10:54:15;98222.94;;;6.31;44.04
21980;BME280;11154;48.558;9.234;2023-02-28T10:56:19;98217.91;;;6.28;44.49
21980;BME280;11154;48.558;9.234;2023-02-28T10:58:24;98211.53;;;6.30;44.81
21980;BME280;11154;48.558;9.234;2023-02-28T11:00:32;98209.75;;;6.42;44.53
21980;BME280;11154;48.558;9.234;2023-02-28T11:02:37;98211.91;;;6.58;44.10
21980;BME280;11154;48.558;9.234;2023-02-28T11:04:41;98215.16;;;6.62;43.77
21980;BME280;11154;48.558;9.234;2023-02-28T11:06:43;98220.66;;;6.59;43.77
21980;BME280;11154;48.558;9.234;2023-02-28T11:08:47;98214.09;;;6.53;43.86
21980;BME280;11154;48.558;9.234;2023-02-28T11:10:54;98215.97;;;6.62;43.87